Aviation Digital Data Service (ADDS)

Output produced by METARs form (2039 UTC 20 July 2018)
found at http://www.aviationweather.gov/adds/metars/
 
KTHV 201953Z AUTO 16005KT 10SM FEW060 28/15 A3007 RMK AO2 SLP180 T02830150
KTHV 201853Z AUTO 20009KT 10SM SCT055 29/16 A3008 RMK AO2 SLP185 T02890161
KTHV 201753Z AUTO VRB04KT 10SM SCT065 27/15 A3010 RMK AO2 SLP192 T02720150 10289 20206 58010
KTHV 201653Z AUTO 15007KT 10SM SCT055 28/15 A3012 RMK AO2 SLP196 T02830150
KTHV 201553Z AUTO VRB06G15KT 10SM BKN055 28/16 A3013 RMK AO2 SLP201 T02780161
KTHV 201453Z AUTO VRB05KT 10SM CLR 26/16 A3013 RMK AO2 SLP204 T02610161 58001
KTHV 201353Z AUTO 20005KT 10SM CLR 25/18 A3013 RMK AO2 SLP203 T02500183
KTHV 201253Z AUTO VRB03KT 10SM CLR 24/18 A3014 RMK AO2 SLP205 T02390183
KTHV 201153Z AUTO 00000KT 8SM CLR 21/17 A3014 RMK AO2 SLP204 T02060172 10206 20161 53008
KTHV 201053Z AUTO 00000KT 7SM CLR 18/16 A3013 RMK AO2 SLP201 T01780161
KTHV 200953Z AUTO 00000KT 9SM CLR 17/15 A3012 RMK AO2 SLP198 T01670150
KTHV 200853Z AUTO 00000KT 10SM CLR 17/16 A3011 RMK AO2 SLP196 T01720156 50000
KTHV 200753Z AUTO 00000KT 10SM FEW060 17/15 A3012 RMK AO2 SLP197 T01670150
KTHV 200653Z AUTO 00000KT 10SM BKN060 17/15 A3011 RMK AO2 SLP197 T01670150
KTHV 200553Z AUTO 00000KT 10SM CLR 18/16 A3011 RMK AO2 SLP197 T01780156 10261 20172 51005
KTHV 200453Z AUTO 00000KT 10SM CLR 19/16 A3011 RMK AO2 SLP195 T01940156 402890133
KTHV 200353Z AUTO 00000KT 10SM CLR 19/16 A3011 RMK AO2 SLP194 T01940156
KTHV 200253Z AUTO 14003KT 10SM CLR 18/16 A3010 RMK AO2 SLP191 T01830161 51013
KTHV 200153Z AUTO 00000KT 10SM CLR 19/17 A3009 RMK AO2 SLP188 T01890167
KTHV 200053Z AUTO 00000KT 10SM CLR 21/17 A3007 RMK AO2 SLP183 T02110172
KTHV 192353Z AUTO 00000KT 10SM CLR 26/17 A3006 RMK AO2 SLP178 T02560167 10289 20256 56006
KTHV 192253Z AUTO 08004KT 10SM CLR 28/14 A3006 RMK AO2 SLP179 T02780139
KTHV 192153Z AUTO 00000KT 10SM CLR 28/13 A3007 RMK AO2 SLP181 T02830133
KTHV 192053Z AUTO 00000KT 10SM CLR 29/13 A3008 RMK AO2 SLP185 T02890133 56009
KTHV 191953Z AUTO VRB04KT 10SM CLR 28/14 A3009 RMK AO2 SLP187 T02780139
KTHV 191853Z AUTO 34004KT 10SM CLR 28/14 A3010 RMK AO2 SLP191 T02780139
KTHV 191753Z AUTO VRB04KT 10SM CLR 27/13 A3011 RMK AO2 SLP195 T02670128 10272 20189 58009
KTHV 191653Z AUTO 00000KT 10SM CLR 26/12 A3013 RMK AO2 SLP200 T02610117
KTHV 191553Z AUTO 04004KT 10SM CLR 25/10 A3013 RMK AO2 SLP201 T02500100
KTHV 191453Z AUTO 04005KT 10SM CLR 24/09 A3014 RMK AO2 SLP204 T02390094 51009
KTHV 191353Z AUTO 03004KT 10SM CLR 23/11 A3013 RMK AO2 SLP203 T02280111
KTHV 191253Z AUTO 04005KT 10SM CLR 22/12 A3013 RMK AO2 SLP201 T02170117
KTHV 191153Z AUTO 00000KT 10SM CLR 19/14 A3011 RMK AO2 SLP196 T01890139 10189 20133 51009
KTHV 191053Z AUTO 00000KT 10SM CLR 16/14 A3010 RMK AO2 SLP192 T01560144
KTHV 190953Z AUTO 00000KT 10SM CLR 14/13 A3010 RMK AO2 SLP191 T01390133
KTHV 190853Z AUTO 00000KT 10SM CLR 14/14 A3008 RMK AO2 SLP186 T01440139 53010